To NAV CANADA Home Page Login to a new session Search on AWWS site Feedback and Comments Disclaimer Vers la page française équivalente Tips FAQ What's new on the site To the Forecasts and Observations / NOTAM section To "File a Flight Plan" website Publications and other links Update of the User's profile FIC Telephone Numbers My Weather Data Folder Route Weather Data Regional Weather Data Local Weather Data To the Forecasts and Observations / NOTAM section
Request Generated 01/17/2017 at 04:48:40 UTC . Weather information available at that time is displayed.

METAR/TAF

TORONTO/BILLY BISHOP TORONTO CITY AIRPORT/ON    (show WxCam)

METAR CYTZ 170400Z AUTO 25005KT 9SM OVC110 01/M04 A3023 RMK SLP240=
METAR CYTZ 170300Z AUTO 22002KT 9SM OVC120 01/M04 A3024 RMK SLP245=
METAR CYTZ 170200Z AUTO 27005KT 9SM OVC130 02/M04 A3025 RMK SLP248=

TAF CYTZ 170138Z 1702/1802 25007KT P6SM BKN140
FM170600 VRB03KT P6SM OVC050
FM170900 05005KT P6SM OVC040 PROB40 1709/1712 5SM -FZRA BR
FM171200 08010KT 5SM -RA BR FEW008 OVC030
FM171500 08018G28KT 4SM -RA BR SCT008 OVC015
FM171800 08020G30KT 2SM -RA BR OVC008
FM172000 08012G22KT 3/4SM -RA -DZ BR OVC004
FM172300 06012KT 1/2SM -DZ FG OVC002
RMK FCST BASED ON AUTO OBS. NXT FCST BY 170800Z=
Your time UTC time
Weather data provided by Environment Canada and NAV CANADA